Time;durP1;ratioP1;P1;durP2;ratioP2;P2;SDS_P1;SDS_P2;PMS_P1;PMS_P2;Temp;Humidity;BMP_temperature;BMP_pressure;BME280_temperature;BME280_humidity;BME280_pressure;Samples;Min_cycle;Max_cycle;Signal;HPM_P1;HPM_P2
2024/01/09 00:01:20;;;;;;;7.05;4.53;;;;;;;;;;5073708;28;20083;-68
2024/01/09 00:04:06;;;;;;;5.80;3.58;;;;;;;;;;5073443;28;20040;-68
2024/01/09 00:06:51;;;;;;;6.72;3.65;;;;;;;;;;5073448;28;20043;-68
2024/01/09 00:09:37;;;;;;;8.65;4.15;;;;;;;;;;5073466;28;20031;-68
2024/01/09 00:12:22;;;;;;;6.43;3.25;;;;;;;;;;5057958;28;20108;-69
2024/01/09 00:15:09;;;;;;;3.05;2.50;;;;;;;;;;5072930;28;20478;-69
2024/01/09 00:17:56;;;;;;;5.03;3.15;;;;;;;;;;5073460;28;20039;-69
2024/01/09 00:20:41;;;;;;;5.50;3.63;;;;;;;;;;5057886;28;20056;-68
2024/01/09 00:23:27;;;;;;;8.80;3.83;;;;;;;;;;5072426;28;20031;-69
2024/01/09 00:26:13;;;;;;;7.00;3.88;;;;;;;;;;5072563;28;20486;-68
2024/01/09 00:28:58;;;;;;;5.75;3.15;;;;;;;;;;5073079;28;20024;-68
2024/01/09 00:31:44;;;;;;;8.30;3.95;;;;;;;;;;5072429;28;20029;-68
2024/01/09 00:34:29;;;;;;;8.23;5.05;;;;;;;;;;5072601;28;20016;-68
2024/01/09 00:37:15;;;;;;;6.90;3.90;;;;;;;;;;5072859;28;20033;-69
2024/01/09 00:40:01;;;;;;;10.52;3.97;;;;;;;;;;5072952;28;20425;-68
2024/01/09 00:42:46;;;;;;;7.68;4.43;;;;;;;;;;5073080;28;20108;-68
2024/01/09 00:45:32;;;;;;;6.80;4.05;;;;;;;;;;5071843;28;20021;-68
2024/01/09 00:48:17;;;;;;;6.78;3.63;;;;;;;;;;5072247;28;20020;-68
2024/01/09 00:51:04;;;;;;;3.88;3.13;;;;;;;;;;5072847;28;20066;-68
2024/01/09 00:53:51;;;;;;;6.70;3.50;;;;;;;;;;5058103;28;20017;-68
2024/01/09 00:56:37;;;;;;;8.00;3.72;;;;;;;;;;5073862;28;20109;-68
2024/01/09 00:59:22;;;;;;;5.70;3.55;;;;;;;;;;5072697;28;20035;-68
2024/01/09 01:02:08;;;;;;;6.28;3.72;;;;;;;;;;5058124;28;20028;-69
2024/01/09 01:04:56;;;;;;;8.02;4.10;;;;;;;;;;5073433;28;20021;-68
2024/01/09 01:07:42;;;;;;;5.15;3.53;;;;;;;;;;5072471;28;20551;-68
2024/01/09 01:10:28;;;;;;;4.60;3.47;;;;;;;;;;5074099;28;20473;-69
2024/01/09 01:13:14;;;;;;;9.55;4.57;;;;;;;;;;5058230;28;20584;-68
2024/01/09 01:16:00;;;;;;;7.95;4.13;;;;;;;;;;5072812;28;20025;-69
2024/01/09 01:18:45;;;;;;;6.50;4.80;;;;;;;;;;5057887;28;20393;-68
2024/01/09 01:21:31;;;;;;;9.57;4.43;;;;;;;;;;5072653;28;20016;-68
2024/01/09 01:24:16;;;;;;;8.30;5.72;;;;;;;;;;5072411;28;20024;-68
2024/01/09 01:27:02;;;;;;;4.43;3.03;;;;;;;;;;5072249;28;20024;-68
2024/01/09 01:29:48;;;;;;;6.85;4.05;;;;;;;;;;5072105;28;20575;-68
2024/01/09 01:32:33;;;;;;;8.15;3.63;;;;;;;;;;5072078;28;20033;-68
2024/01/09 01:35:19;;;;;;;5.93;3.60;;;;;;;;;;5071436;28;20078;-68
2024/01/09 01:38:04;;;;;;;7.70;3.92;;;;;;;;;;5071600;28;20114;-68
2024/01/09 01:40:50;;;;;;;10.15;3.90;;;;;;;;;;5072217;28;20083;-68
2024/01/09 01:43:36;;;;;;;5.68;3.17;;;;;;;;;;5072509;28;20025;-68
2024/01/09 01:46:22;;;;;;;8.38;4.28;;;;;;;;;;5072857;28;20091;-68
2024/01/09 01:49:07;;;;;;;4.75;3.42;;;;;;;;;;5076062;28;20032;-68
2024/01/09 01:51:53;;;;;;;6.43;3.83;;;;;;;;;;5074441;28;20021;-68
2024/01/09 01:54:40;;;;;;;5.63;3.63;;;;;;;;;;5075756;28;20024;-68
2024/01/09 01:57:26;;;;;;;8.35;3.38;;;;;;;;;;5076156;28;20029;-68
2024/01/09 02:00:13;;;;;;;7.78;3.63;;;;;;;;;;5061057;28;20020;-68
2024/01/09 02:02:59;;;;;;;7.68;3.05;;;;;;;;;;5075927;28;20021;-68
2024/01/09 02:05:45;;;;;;;7.50;3.33;;;;;;;;;;5075565;28;20108;-68
2024/01/09 02:08:31;;;;;;;7.20;4.07;;;;;;;;;;5061701;28;20027;-68
2024/01/09 02:11:17;;;;;;;7.15;4.38;;;;;;;;;;5075961;28;20088;-68
2024/01/09 02:14:03;;;;;;;5.25;3.92;;;;;;;;;;5075345;28;20026;-68
2024/01/09 02:16:48;;;;;;;12.80;4.25;;;;;;;;;;5076835;28;20486;-68
2024/01/09 02:19:34;;;;;;;6.40;4.45;;;;;;;;;;5075365;28;20029;-68
2024/01/09 02:22:20;;;;;;;5.18;3.67;;;;;;;;;;5076769;22;20045;-67
2024/01/09 02:25:06;;;;;;;11.68;4.72;;;;;;;;;;5016621;28;20026;-67
2024/01/09 02:28:12;;;;;;;5.95;3.72;;;;;;;;;;5015630;28;20026;-67
2024/01/09 02:30:58;;;;;;;8.07;3.80;;;;;;;;;;5002022;28;20056;-67
2024/01/09 02:33:44;;;;;;;8.82;4.43;;;;;;;;;;5001293;28;20054;-67
2024/01/09 02:36:30;;;;;;;5.70;3.88;;;;;;;;;;5015854;28;20147;-67
2024/01/09 02:39:15;;;;;;;5.95;3.65;;;;;;;;;;5015760;28;20450;-67
2024/01/09 02:42:01;;;;;;;8.00;4.22;;;;;;;;;;5015995;28;20033;-67
2024/01/09 02:44:47;;;;;;;7.85;4.45;;;;;;;;;;5015379;28;20092;-67
2024/01/09 02:47:32;;;;;;;5.03;4.07;;;;;;;;;;5016193;28;20032;-67
2024/01/09 02:50:20;;;;;;;5.60;3.63;;;;;;;;;;5016114;28;20391;-67
2024/01/09 02:53:05;;;;;;;9.00;3.90;;;;;;;;;;5002068;28;20018;-67
2024/01/09 02:55:51;;;;;;;4.25;2.72;;;;;;;;;;5022822;28;20029;-67
2024/01/09 02:58:37;;;;;;;6.97;5.10;;;;;;;;;;5035094;28;20418;-67
2024/01/09 03:01:25;;;;;;;4.65;2.80;;;;;;;;;;5021345;28;20030;-67
2024/01/09 03:04:11;;;;;;;6.68;3.75;;;;;;;;;;5033609;28;20022;-67
2024/01/09 03:06:56;;;;;;;7.25;3.92;;;;;;;;;;5035437;28;20029;-68
2024/01/09 03:09:43;;;;;;;9.25;5.10;;;;;;;;;;5015153;28;20087;-67
2024/01/09 03:12:28;;;;;;;5.57;3.45;;;;;;;;;;4999407;28;20483;-67
2024/01/09 03:15:14;;;;;;;6.50;3.45;;;;;;;;;;5007212;28;20029;-67
2024/01/09 03:18:02;;;;;;;4.72;3.67;;;;;;;;;;5015161;28;20030;-67
2024/01/09 03:20:48;;;;;;;7.97;3.67;;;;;;;;;;5015041;28;20407;-67
2024/01/09 03:23:33;;;;;;;7.80;3.72;;;;;;;;;;5014715;28;20029;-67
2024/01/09 03:26:21;;;;;;;7.32;4.97;;;;;;;;;;5000240;28;20032;-67
2024/01/09 03:29:06;;;;;;;9.00;4.38;;;;;;;;;;5015275;28;20112;-67
2024/01/09 03:31:52;;;;;;;7.57;3.72;;;;;;;;;;5014479;28;20029;-67
2024/01/09 03:34:40;;;;;;;9.90;3.80;;;;;;;;;;5015290;28;20022;-67
2024/01/09 03:37:25;;;;;;;8.65;3.72;;;;;;;;;;5001949;28;20084;-66
2024/01/09 03:40:11;;;;;;;5.45;3.50;;;;;;;;;;5020218;28;20034;-67
2024/01/09 03:42:57;;;;;;;4.70;3.53;;;;;;;;;;5034982;28;20491;-67
2024/01/09 03:45:43;;;;;;;4.57;2.85;;;;;;;;;;5034208;28;20036;-67
2024/01/09 03:48:28;;;;;;;6.35;3.63;;;;;;;;;;5034322;28;20033;-67
2024/01/09 03:51:16;;;;;;;8.55;3.63;;;;;;;;;;5034751;28;20022;-66
2024/01/09 03:54:02;;;;;;;5.40;3.67;;;;;;;;;;5020859;28;20108;-67
2024/01/09 03:56:47;;;;;;;6.40;4.70;;;;;;;;;;5033796;28;20394;-67
2024/01/09 03:59:33;;;;;;;7.28;3.78;;;;;;;;;;5034683;28;20021;-67
2024/01/09 04:02:21;;;;;;;8.02;5.18;;;;;;;;;;5035174;28;20395;-67
2024/01/09 04:05:07;;;;;;;5.40;4.05;;;;;;;;;;5034620;28;20479;-67
2024/01/09 04:07:53;;;;;;;9.15;5.20;;;;;;;;;;5034133;28;20045;-67
2024/01/09 04:10:39;;;;;;;8.63;3.50;;;;;;;;;;5033638;28;20026;-67
2024/01/09 04:13:24;;;;;;;6.05;3.35;;;;;;;;;;5033956;28;20083;-68
2024/01/09 04:16:11;;;;;;;6.20;3.65;;;;;;;;;;5034073;28;20550;-67
2024/01/09 04:18:56;;;;;;;6.47;4.05;;;;;;;;;;5033928;28;20040;-67
2024/01/09 04:21:42;;;;;;;7.57;4.65;;;;;;;;;;5033419;28;20021;-67
2024/01/09 04:24:28;;;;;;;7.40;4.72;;;;;;;;;;5033520;28;20029;-67
2024/01/09 04:27:13;;;;;;;16.10;6.03;;;;;;;;;;5033639;28;20036;-67
2024/01/09 04:29:59;;;;;;;7.07;4.85;;;;;;;;;;5033075;28;20071;-67
2024/01/09 04:32:45;;;;;;;8.70;3.60;;;;;;;;;;5033938;28;20056;-67
2024/01/09 04:35:30;;;;;;;9.65;4.35;;;;;;;;;;5032232;28;20024;-67
2024/01/09 04:38:16;;;;;;;8.00;4.15;;;;;;;;;;5033449;28;20063;-67
2024/01/09 04:41:02;;;;;;;11.35;6.47;;;;;;;;;;5034055;28;20022;-67
2024/01/09 04:43:48;;;;;;;5.45;4.15;;;;;;;;;;5033003;28;20021;-67
2024/01/09 04:46:33;;;;;;;6.15;4.28;;;;;;;;;;5033771;28;20022;-66
2024/01/09 04:49:19;;;;;;;8.75;4.80;;;;;;;;;;5033667;28;20052;-66
2024/01/09 04:52:05;;;;;;;7.88;5.43;;;;;;;;;;5033419;28;20029;-67
2024/01/09 04:54:51;;;;;;;9.57;4.97;;;;;;;;;;5018855;28;20025;-67
2024/01/09 04:57:37;;;;;;;8.55;4.85;;;;;;;;;;5033272;28;20402;-67
2024/01/09 05:00:23;;;;;;;9.05;5.38;;;;;;;;;;5033675;28;20021;-67
2024/01/09 05:03:08;;;;;;;9.55;5.07;;;;;;;;;;5032942;28;20553;-66
2024/01/09 05:05:54;;;;;;;18.88;9.40;;;;;;;;;;5033394;28;20026;-66
2024/01/09 05:08:40;;;;;;;15.55;9.05;;;;;;;;;;5018628;28;20088;-66
2024/01/09 05:11:25;;;;;;;12.55;7.85;;;;;;;;;;5031966;28;20112;-67
2024/01/09 05:14:11;;;;;;;18.08;8.15;;;;;;;;;;5033201;28;20029;-66
2024/01/09 05:16:56;;;;;;;17.33;9.50;;;;;;;;;;5033157;28;20564;-66
2024/01/09 05:19:42;;;;;;;17.23;9.15;;;;;;;;;;5033238;28;20022;-67
2024/01/09 05:22:28;;;;;;;41.38;18.73;;;;;;;;;;5036463;28;20041;-67
2024/01/09 05:25:13;;;;;;;18.83;11.63;;;;;;;;;;5036080;28;20156;-67
2024/01/09 05:27:59;;;;;;;24.08;12.65;;;;;;;;;;4998115;28;20076;-67
2024/01/09 05:30:45;;;;;;;23.50;9.38;;;;;;;;;;4997256;28;20027;-67
2024/01/09 05:33:33;;;;;;;17.60;7.40;;;;;;;;;;4997434;28;20050;-67
2024/01/09 05:36:22;;;;;;;11.27;6.43;;;;;;;;;;5017096;28;20021;-67
2024/01/09 05:39:07;;;;;;;10.63;6.97;;;;;;;;;;5021986;28;20021;-67
2024/01/09 05:41:54;;;;;;;10.80;5.90;;;;;;;;;;5036648;28;20025;-67
2024/01/09 05:44:40;;;;;;;18.10;6.97;;;;;;;;;;5022861;28;20025;-67
2024/01/09 05:47:26;;;;;;;23.80;8.98;;;;;;;;;;5036531;28;20442;-66
2024/01/09 05:50:11;;;;;;;17.20;8.15;;;;;;;;;;5036667;28;20025;-67
2024/01/09 05:52:57;;;;;;;18.30;10.13;;;;;;;;;;5035540;28;20021;-67
2024/01/09 05:55:42;;;;;;;14.43;9.63;;;;;;;;;;5021526;28;20092;-67
2024/01/09 05:58:28;;;;;;;12.52;7.45;;;;;;;;;;5036709;28;20450;-67
2024/01/09 06:01:14;;;;;;;16.75;8.30;;;;;;;;;;5036670;28;20022;-66
2024/01/09 06:03:59;;;;;;;17.23;9.93;;;;;;;;;;5034692;28;20025;-68
2024/01/09 06:06:45;;;;;;;16.88;6.55;;;;;;;;;;5036254;28;20037;-67
2024/01/09 06:09:30;;;;;;;15.30;7.75;;;;;;;;;;5036359;28;20057;-67
2024/01/09 06:12:16;;;;;;;24.13;10.70;;;;;;;;;;5036624;28;20026;-67
2024/01/09 06:15:03;;;;;;;19.63;9.23;;;;;;;;;;5035719;28;20430;-67
2024/01/09 06:17:49;;;;;;;11.85;7.43;;;;;;;;;;5021389;28;20053;-67
2024/01/09 06:20:35;;;;;;;15.00;7.97;;;;;;;;;;5036116;28;20026;-67
2024/01/09 06:23:20;;;;;;;26.58;10.10;;;;;;;;;;5021888;28;20029;-67
2024/01/09 06:26:06;;;;;;;25.50;10.98;;;;;;;;;;5035601;28;20453;-67
2024/01/09 06:28:52;;;;;;;21.73;11.18;;;;;;;;;;5021724;28;20494;-67
2024/01/09 06:31:38;;;;;;;17.77;9.77;;;;;;;;;;5034463;28;20490;-68
2024/01/09 06:34:24;;;;;;;20.08;10.20;;;;;;;;;;5036347;28;20100;-67
2024/01/09 06:37:09;;;;;;;11.90;7.00;;;;;;;;;;5035290;28;20029;-67
2024/01/09 06:39:55;;;;;;;12.90;8.18;;;;;;;;;;5035921;28;20108;-67
2024/01/09 06:42:41;;;;;;;15.98;10.32;;;;;;;;;;5035978;28;20029;-67
2024/01/09 06:45:26;;;;;;;13.52;8.18;;;;;;;;;;5035201;28;20061;-67
2024/01/09 06:48:12;;;;;;;18.05;8.85;;;;;;;;;;5035281;28;20124;-67
2024/01/09 06:50:58;;;;;;;13.68;8.07;;;;;;;;;;5035759;28;20025;-67
2024/01/09 06:53:43;;;;;;;16.33;8.60;;;;;;;;;;5035501;28;20017;-67
2024/01/09 06:56:29;;;;;;;11.55;7.65;;;;;;;;;;5035804;28;20030;-67
2024/01/09 06:59:15;;;;;;;16.70;9.55;;;;;;;;;;5035804;28;20060;-67
2024/01/09 07:02:01;;;;;;;18.48;11.63;;;;;;;;;;5034548;28;20550;-67
2024/01/09 07:04:46;;;;;;;14.85;9.40;;;;;;;;;;5022084;28;20450;-66
2024/01/09 07:07:32;;;;;;;22.35;9.35;;;;;;;;;;5035765;28;20034;-66
2024/01/09 07:10:18;;;;;;;21.08;8.45;;;;;;;;;;5035723;28;20052;-67
2024/01/09 07:13:03;;;;;;;14.85;9.70;;;;;;;;;;5035476;28;20486;-66
2024/01/09 07:15:49;;;;;;;18.05;9.63;;;;;;;;;;5035313;28;20032;-67
2024/01/09 07:18:35;;;;;;;19.05;8.80;;;;;;;;;;5035690;28;20032;-67
2024/01/09 07:21:21;;;;;;;20.67;10.02;;;;;;;;;;5035398;28;20022;-67
2024/01/09 07:24:06;;;;;;;19.17;10.07;;;;;;;;;;5010885;28;20459;-67
2024/01/09 07:26:52;;;;;;;15.23;8.93;;;;;;;;;;5014563;28;20065;-67
2024/01/09 07:29:38;;;;;;;21.50;13.07;;;;;;;;;;5026932;28;20100;-67
2024/01/09 07:32:23;;;;;;;21.70;10.05;;;;;;;;;;5030463;28;20022;-67
2024/01/09 07:35:09;;;;;;;16.27;10.98;;;;;;;;;;5027308;28;20017;-67
2024/01/09 07:37:55;;;;;;;28.38;9.93;;;;;;;;;;5034831;28;20021;-67
2024/01/09 07:40:40;;;;;;;20.65;10.18;;;;;;;;;;5034213;28;20029;-67
2024/01/09 07:43:26;;;;;;;24.77;10.32;;;;;;;;;;5032195;28;20025;-67
2024/01/09 07:46:11;;;;;;;26.73;12.88;;;;;;;;;;5033341;28;20087;-67
2024/01/09 07:48:57;;;;;;;27.95;10.80;;;;;;;;;;5033954;28;20025;-67
2024/01/09 07:51:44;;;;;;;16.60;9.25;;;;;;;;;;5033237;28;20106;-67
2024/01/09 07:54:30;;;;;;;19.75;10.77;;;;;;;;;;5032566;28;20375;-67
2024/01/09 07:57:15;;;;;;;19.80;10.70;;;;;;;;;;5033523;28;20040;-67
2024/01/09 08:00:01;;;;;;;21.02;11.20;;;;;;;;;;5033204;28;20025;-67
2024/01/09 08:02:47;;;;;;;34.33;14.70;;;;;;;;;;5005490;28;20031;-67
2024/01/09 08:05:32;;;;;;;25.27;13.43;;;;;;;;;;5033245;28;20018;-67
2024/01/09 08:08:18;;;;;;;19.92;9.73;;;;;;;;;;5018958;28;20018;-67
2024/01/09 08:11:05;;;;;;;25.27;11.73;;;;;;;;;;5026008;28;20456;-67
2024/01/09 08:13:50;;;;;;;26.65;10.98;;;;;;;;;;4966947;28;20018;-67
2024/01/09 08:16:36;;;;;;;26.58;10.35;;;;;;;;;;4993828;28;20030;-67
2024/01/09 08:19:21;;;;;;;24.30;10.88;;;;;;;;;;4994126;28;20023;-68
2024/01/09 08:22:07;;;;;;;28.05;11.07;;;;;;;;;;4994132;28;20574;-67
2024/01/09 08:24:53;;;;;;;21.10;12.10;;;;;;;;;;5041548;23;20044;-69
2024/01/09 08:30:18;;;;;;;24.67;15.07;;;;;;;;;;5090579;28;20337;-68
2024/01/09 08:33:04;;;;;;;36.20;14.68;;;;;;;;;;5088760;28;20045;-67
2024/01/09 08:35:50;;;;;;;22.10;12.95;;;;;;;;;;5088672;28;20028;-68
2024/01/09 08:38:35;;;;;;;23.75;14.20;;;;;;;;;;5088960;28;20020;-68
2024/01/09 08:41:21;;;;;;;32.03;15.80;;;;;;;;;;5087994;28;20033;-69
2024/01/09 08:44:07;;;;;;;28.23;16.20;;;;;;;;;;5088337;28;20031;-68
2024/01/09 08:46:53;;;;;;;31.42;16.40;;;;;;;;;;5087742;28;20554;-67
2024/01/09 08:49:38;;;;;;;28.60;12.52;;;;;;;;;;5087927;28;20386;-68
2024/01/09 08:52:25;;;;;;;31.88;14.35;;;;;;;;;;5087643;28;20025;-68
2024/01/09 08:55:10;;;;;;;30.35;16.75;;;;;;;;;;5087674;28;20036;-69
2024/01/09 08:57:56;;;;;;;31.88;18.00;;;;;;;;;;5088207;28;20020;-68
2024/01/09 09:00:42;;;;;;;40.17;16.88;;;;;;;;;;5088097;28;20373;-69
2024/01/09 09:03:27;;;;;;;29.20;17.20;;;;;;;;;;5076577;28;20017;-68
2024/01/09 09:06:13;;;;;;;27.42;16.25;;;;;;;;;;5068304;28;20063;-69
2024/01/09 09:08:59;;;;;;;45.58;18.15;;;;;;;;;;5070521;28;20025;-69
2024/01/09 09:11:44;;;;;;;26.10;15.38;;;;;;;;;;5068273;28;20573;-69
2024/01/09 09:14:30;;;;;;;31.55;17.13;;;;;;;;;;5075603;28;20052;-69
2024/01/09 09:17:18;;;;;;;37.85;19.75;;;;;;;;;;5088198;28;20024;-69
2024/01/09 09:20:05;;;;;;;38.40;17.13;;;;;;;;;;5088243;28;20043;-69
2024/01/09 09:22:51;;;;;;;28.45;16.42;;;;;;;;;;5087913;28;20016;-69
2024/01/09 09:25:36;;;;;;;34.35;18.27;;;;;;;;;;5087043;28;20059;-69
2024/01/09 09:28:22;;;;;;;34.42;16.15;;;;;;;;;;5078230;28;20059;-69
2024/01/09 09:31:08;;;;;;;28.70;14.05;;;;;;;;;;5088923;28;20058;-69
2024/01/09 09:33:57;;;;;;;35.92;17.23;;;;;;;;;;5087494;28;20023;-69
2024/01/09 09:36:43;;;;;;;34.85;16.65;;;;;;;;;;5087811;28;20103;-70
2024/01/09 09:39:29;;;;;;;29.75;15.27;;;;;;;;;;5086820;28;20020;-69
2024/01/09 09:42:14;;;;;;;29.35;15.88;;;;;;;;;;5074491;28;20024;-69
2024/01/09 09:45:01;;;;;;;29.02;14.93;;;;;;;;;;5073797;28;20482;-69
2024/01/09 09:47:48;;;;;;;33.80;14.43;;;;;;;;;;5072761;28;20493;-68
2024/01/09 09:50:34;;;;;;;32.33;13.95;;;;;;;;;;5073683;28;20107;-70
2024/01/09 09:53:26;;;;;;;32.33;15.35;;;;;;;;;;5069164;28;20082;-69
2024/01/09 09:56:15;;;;;;;31.30;16.27;;;;;;;;;;5073060;28;20027;-69
2024/01/09 09:59:01;;;;;;;30.50;15.32;;;;;;;;;;5054047;28;20017;-68
2024/01/09 10:01:47;;;;;;;30.08;14.57;;;;;;;;;;5054657;28;20036;-69
2024/01/09 10:04:45;;;;;;;25.10;14.07;;;;;;;;;;5069898;28;20036;-69
2024/01/09 10:07:32;;;;;;;26.50;14.60;;;;;;;;;;5073426;28;20024;-69
2024/01/09 10:10:20;;;;;;;26.15;13.80;;;;;;;;;;5072373;28;20032;-69
2024/01/09 10:13:06;;;;;;;27.10;14.15;;;;;;;;;;5073513;28;20111;-69
2024/01/09 10:15:56;;;;;;;30.40;15.55;;;;;;;;;;5073558;28;20020;-69
2024/01/09 10:18:42;;;;;;;21.67;13.52;;;;;;;;;;5072553;28;20016;-69
2024/01/09 10:21:28;;;;;;;30.95;11.80;;;;;;;;;;5073109;28;20405;-70
2024/01/09 10:24:14;;;;;;;29.33;14.32;;;;;;;;;;5072957;28;20028;-69
2024/01/09 10:27:00;;;;;;;32.03;15.80;;;;;;;;;;5072395;28;20077;-69
2024/01/09 10:29:46;;;;;;;27.55;14.80;;;;;;;;;;5068147;28;20105;-69
2024/01/09 10:32:33;;;;;;;28.45;13.57;;;;;;;;;;5059891;28;20106;-69
2024/01/09 10:35:19;;;;;;;33.55;15.52;;;;;;;;;;5062010;28;20055;-69
2024/01/09 10:38:05;;;;;;;28.27;13.82;;;;;;;;;;5063463;28;20021;-69
2024/01/09 10:40:56;;;;;;;27.70;14.38;;;;;;;;;;5060697;28;20020;-69
2024/01/09 10:43:42;;;;;;;28.65;15.13;;;;;;;;;;5064491;28;20158;-69
2024/01/09 10:46:31;;;;;;;32.92;14.68;;;;;;;;;;5066933;28;20020;-69
2024/01/09 10:49:17;;;;;;;28.15;14.20;;;;;;;;;;5056849;28;20540;-70
2024/01/09 10:52:04;;;;;;;29.45;14.38;;;;;;;;;;5057890;28;20025;-70
2024/01/09 10:54:50;;;;;;;26.10;14.20;;;;;;;;;;5058195;28;20505;-70
2024/01/09 10:57:37;;;;;;;27.92;14.38;;;;;;;;;;5062979;28;20040;-70
2024/01/09 11:00:23;;;;;;;30.88;14.57;;;;;;;;;;5061254;28;20056;-71
2024/01/09 11:03:11;;;;;;;32.42;13.38;;;;;;;;;;5059882;28;20083;-70
2024/01/09 11:05:59;;;;;;;20.80;12.68;;;;;;;;;;5058094;28;20021;-70
2024/01/09 11:08:49;;;;;;;25.08;12.25;;;;;;;;;;5063546;28;20024;-71
2024/01/09 11:11:36;;;;;;;25.65;13.35;;;;;;;;;;5055658;28;20497;-70
2024/01/09 11:14:22;;;;;;;25.92;12.35;;;;;;;;;;5061262;28;20493;-71
2024/01/09 11:17:08;;;;;;;25.92;13.45;;;;;;;;;;5056837;28;20063;-70
2024/01/09 11:19:54;;;;;;;22.98;11.13;;;;;;;;;;5064838;28;20394;-70
2024/01/09 11:22:40;;;;;;;25.67;12.00;;;;;;;;;;5063966;28;20131;-70
2024/01/09 11:25:31;;;;;;;22.90;12.38;;;;;;;;;;5061069;28;20029;-71
2024/01/09 11:28:36;;;;;;;24.20;13.25;;;;;;;;;;5053801;28;20047;-70
2024/01/09 11:31:23;;;;;;;30.13;14.30;;;;;;;;;;5061818;28;20029;-70
2024/01/09 11:34:09;;;;;;;21.58;12.48;;;;;;;;;;5060122;28;20036;-70
2024/01/09 11:36:56;;;;;;;27.33;12.95;;;;;;;;;;5059495;28;20028;-70
2024/01/09 11:39:43;;;;;;;31.42;13.45;;;;;;;;;;5061970;28;20170;-70
2024/01/09 11:42:29;;;;;;;25.00;13.38;;;;;;;;;;5060273;28;20112;-70
2024/01/09 11:45:22;;;;;;;27.08;13.32;;;;;;;;;;5055269;28;20025;-70
2024/01/09 11:48:07;;;;;;;23.55;13.25;;;;;;;;;;5053473;28;20525;-70
2024/01/09 11:50:53;;;;;;;26.58;13.13;;;;;;;;;;5056641;28;20099;-71
2024/01/09 11:53:39;;;;;;;23.17;12.68;;;;;;;;;;5059509;28;20052;-71
2024/01/09 11:56:25;;;;;;;22.25;11.05;;;;;;;;;;5058871;28;20020;-71
2024/01/09 11:59:10;;;;;;;24.27;12.27;;;;;;;;;;5063999;28;20082;-70
2024/01/09 12:01:56;;;;;;;25.98;11.90;;;;;;;;;;5063389;28;20498;-71
2024/01/09 12:04:42;;;;;;;19.90;10.68;;;;;;;;;;5062040;28;20025;-70
2024/01/09 12:07:28;;;;;;;25.08;11.52;;;;;;;;;;5061461;28;20031;-71
2024/01/09 12:10:15;;;;;;;24.52;12.30;;;;;;;;;;5054992;28;20055;-71
2024/01/09 12:13:03;;;;;;;21.05;12.27;;;;;;;;;;5057919;28;20063;-71
2024/01/09 12:15:48;;;;;;;20.52;10.45;;;;;;;;;;5062556;28;20469;-71
2024/01/09 12:18:49;;;;;;;23.90;12.00;;;;;;;;;;5062319;28;20031;-70
2024/01/09 12:21:35;;;;;;;21.60;9.73;;;;;;;;;;5053058;28;20467;-71
2024/01/09 12:24:21;;;;;;;24.80;10.70;;;;;;;;;;5061301;28;20024;-70
2024/01/09 12:27:07;;;;;;;24.92;11.50;;;;;;;;;;5066806;28;20071;-71
2024/01/09 12:29:53;;;;;;;18.88;9.80;;;;;;;;;;5059396;28;20025;-72
2024/01/09 12:32:38;;;;;;;19.80;11.82;;;;;;;;;;5059100;28;20032;-71
2024/01/09 12:35:24;;;;;;;24.17;9.70;;;;;;;;;;5062531;28;20479;-71
2024/01/09 12:38:10;;;;;;;16.85;9.80;;;;;;;;;;5066433;28;20090;-71
2024/01/09 12:41:06;;;;;;;20.38;10.90;;;;;;;;;;5068429;28;20017;-70
2024/01/09 12:43:52;;;;;;;18.45;8.48;;;;;;;;;;5065394;28;20421;-71
2024/01/09 12:46:41;;;;;;;18.77;11.55;;;;;;;;;;5071777;28;20039;-70
2024/01/09 12:49:27;;;;;;;20.08;10.48;;;;;;;;;;5071078;28;20044;-71
2024/01/09 12:52:13;;;;;;;22.77;11.73;;;;;;;;;;5070624;28;20040;-70
2024/01/09 12:55:00;;;;;;;19.50;11.10;;;;;;;;;;5058952;28;20066;-71
2024/01/09 12:57:45;;;;;;;20.13;10.75;;;;;;;;;;5070585;28;20551;-71
2024/01/09 13:00:31;;;;;;;20.13;10.30;;;;;;;;;;5057930;28;20106;-71
2024/01/09 13:03:18;;;;;;;15.88;9.02;;;;;;;;;;5059443;28;20169;-71
2024/01/09 13:06:04;;;;;;;17.52;10.27;;;;;;;;;;5057575;28;20033;-71
2024/01/09 13:08:50;;;;;;;17.55;9.85;;;;;;;;;;5066356;28;20028;-71
2024/01/09 13:11:39;;;;;;;19.20;10.05;;;;;;;;;;5065896;28;20028;-74
2024/01/09 13:14:26;;;;;;;14.88;8.63;;;;;;;;;;5069745;28;20383;-71
2024/01/09 13:17:11;;;;;;;16.23;9.30;;;;;;;;;;5066365;28;20081;-71
2024/01/09 13:19:57;;;;;;;18.73;9.23;;;;;;;;;;5066137;28;20033;-70
2024/01/09 13:22:42;;;;;;;17.92;9.73;;;;;;;;;;5058556;28;20052;-71
2024/01/09 13:25:28;;;;;;;17.25;9.48;;;;;;;;;;5058807;28;20028;-71
2024/01/09 13:28:14;;;;;;;14.88;7.53;;;;;;;;;;5074804;28;20359;-71
2024/01/09 13:30:59;;;;;;;14.85;9.20;;;;;;;;;;5064144;28;20013;-70
2024/01/09 13:33:45;;;;;;;16.85;10.35;;;;;;;;;;5074675;28;20107;-70
2024/01/09 13:36:31;;;;;;;14.10;9.43;;;;;;;;;;5073809;28;20027;-70
2024/01/09 13:39:18;;;;;;;15.98;9.38;;;;;;;;;;5073549;28;20016;-70
2024/01/09 13:42:04;;;;;;;15.52;8.23;;;;;;;;;;5074498;28;20445;-71
2024/01/09 13:44:49;;;;;;;16.05;9.02;;;;;;;;;;5073778;28;20104;-70
2024/01/09 13:47:35;;;;;;;21.05;9.18;;;;;;;;;;5066519;28;20017;-71
2024/01/09 13:50:23;;;;;;;13.45;6.28;;;;;;;;;;5055248;28;20354;-70
2024/01/09 13:53:09;;;;;;;14.32;8.38;;;;;;;;;;5053755;28;20159;-70
2024/01/09 13:55:54;;;;;;;15.63;6.93;;;;;;;;;;5053963;28;20457;-70
2024/01/09 13:58:41;;;;;;;14.50;8.80;;;;;;;;;;5053490;28;20273;-71
2024/01/09 14:01:28;;;;;;;15.18;9.52;;;;;;;;;;5066713;28;20103;-70
2024/01/09 14:04:15;;;;;;;17.88;8.60;;;;;;;;;;5066074;28;20029;-70
2024/01/09 14:07:01;;;;;;;12.55;8.32;;;;;;;;;;5054062;28;20025;-71
2024/01/09 14:09:47;;;;;;;18.63;8.85;;;;;;;;;;5059495;28;20027;-70
2024/01/09 14:12:34;;;;;;;14.13;8.88;;;;;;;;;;5054391;28;20021;-70
2024/01/09 14:15:20;;;;;;;18.75;9.88;;;;;;;;;;5061558;28;20024;-70
2024/01/09 14:18:06;;;;;;;16.38;7.93;;;;;;;;;;5073882;28;20031;-70
2024/01/09 14:20:52;;;;;;;15.18;8.55;;;;;;;;;;5072907;28;21268;-70
2024/01/09 14:23:38;;;;;;;11.80;8.00;;;;;;;;;;5073734;28;20463;-71
2024/01/09 14:26:23;;;;;;;15.20;9.50;;;;;;;;;;5066021;28;20024;-69
2024/01/09 14:29:09;;;;;;;12.60;8.38;;;;;;;;;;5053209;28;20061;-69
2024/01/09 14:31:55;;;;;;;14.65;8.23;;;;;;;;;;5060962;28;20490;-69
2024/01/09 14:34:41;;;;;;;13.85;7.75;;;;;;;;;;5054092;28;20565;-70
2024/01/09 14:37:26;;;;;;;11.85;8.10;;;;;;;;;;5065394;28;20108;-68
2024/01/09 14:40:12;;;;;;;13.00;6.45;;;;;;;;;;5074326;28;20052;-68
2024/01/09 14:42:58;;;;;;;15.18;8.88;;;;;;;;;;5072944;28;20020;-69
2024/01/09 14:45:44;;;;;;;14.18;8.43;;;;;;;;;;5073381;28;20107;-69
2024/01/09 14:48:30;;;;;;;11.35;6.95;;;;;;;;;;5072162;28;20417;-69
2024/01/09 14:51:16;;;;;;;15.55;8.35;;;;;;;;;;5073502;28;20017;-69
2024/01/09 14:54:02;;;;;;;15.02;8.75;;;;;;;;;;5072814;28;20086;-69
2024/01/09 14:56:51;;;;;;;15.80;9.40;;;;;;;;;;5064806;28;20454;-69
2024/01/09 14:59:37;;;;;;;14.73;7.18;;;;;;;;;;5053183;28;20025;-69
2024/01/09 15:02:23;;;;;;;13.10;7.65;;;;;;;;;;5054006;28;20025;-68
2024/01/09 15:05:09;;;;;;;20.65;9.90;;;;;;;;;;5053516;28;20035;-68
2024/01/09 15:07:54;;;;;;;16.38;9.23;;;;;;;;;;5055811;28;20494;-68
2024/01/09 15:10:40;;;;;;;13.60;8.02;;;;;;;;;;5056568;28;20039;-69
2024/01/09 15:13:26;;;;;;;15.30;9.50;;;;;;;;;;5054867;28;20021;-68
2024/01/09 15:16:12;;;;;;;23.45;10.95;;;;;;;;;;5054564;28;20021;-68
2024/01/09 15:18:59;;;;;;;17.48;8.40;;;;;;;;;;5063565;28;20394;-69
2024/01/09 15:21:44;;;;;;;31.77;14.70;;;;;;;;;;5052136;28;20017;-68
2024/01/09 15:24:30;;;;;;;23.85;11.40;;;;;;;;;;5066016;28;20028;-69
2024/01/09 15:27:15;;;;;;;37.08;16.35;;;;;;;;;;5072548;28;20032;-69
2024/01/09 15:30:01;;;;;;;21.77;12.60;;;;;;;;;;5071990;28;20035;-68
2024/01/09 15:32:47;;;;;;;35.55;14.25;;;;;;;;;;5072342;28;20054;-68
2024/01/09 15:35:34;;;;;;;18.95;11.45;;;;;;;;;;5072428;28;20032;-68
2024/01/09 15:38:20;;;;;;;28.23;11.43;;;;;;;;;;5071600;28;20025;-69
2024/01/09 15:41:09;;;;;;;39.47;18.17;;;;;;;;;;5072340;28;20111;-69
2024/01/09 15:43:55;;;;;;;32.17;12.60;;;;;;;;;;5071725;28;20418;-69
2024/01/09 15:46:43;;;;;;;19.90;10.98;;;;;;;;;;5072316;28;20039;-69
2024/01/09 15:49:28;;;;;;;16.85;9.02;;;;;;;;;;5071784;28;20116;-69
2024/01/09 15:52:14;;;;;;;47.58;18.27;;;;;;;;;;5072097;28;20485;-69
2024/01/09 15:54:59;;;;;;;40.15;16.23;;;;;;;;;;5071791;28;20115;-69
2024/01/09 15:57:46;;;;;;;23.90;11.88;;;;;;;;;;5072142;28;20120;-69
2024/01/09 16:00:31;;;;;;;17.50;10.30;;;;;;;;;;5071866;28;20016;-69
2024/01/09 16:03:19;;;;;;;26.70;13.27;;;;;;;;;;5073542;28;20028;-69
2024/01/09 16:06:04;;;;;;;32.15;15.65;;;;;;;;;;5071698;28;20510;-68
2024/01/09 16:08:50;;;;;;;25.77;13.30;;;;;;;;;;5060605;28;20163;-69
2024/01/09 16:11:36;;;;;;;21.58;9.60;;;;;;;;;;5052490;28;20108;-68
2024/01/09 16:14:21;;;;;;;19.80;8.85;;;;;;;;;;5052671;28;20025;-69
2024/01/09 16:17:07;;;;;;;18.45;10.93;;;;;;;;;;5065317;28;20520;-69
2024/01/09 16:19:53;;;;;;;19.30;9.85;;;;;;;;;;5071508;28;20028;-69
2024/01/09 16:22:39;;;;;;;16.67;8.77;;;;;;;;;;5066723;28;20548;-68